Akademik Korolev — UHQS — position and weather

sailwx.info

Track history (hours):
 
Tides and Currents Weather Stations Pressure Air Temp Water Temp Dewpoint Dewpoint Depression Visibility Wind Speed Wind Dir Waves Ship Positions

Oceanographic research ship Akademik Korolev (Russia)

Detailed information on ship capabilities available from University of Delaware's Ocean Information Center.

Last reported at 2017-Oct-27 02:33 UTC. Time now 2017-Dec-13 13:14 UTC.
Position N 37°49' E 122°31'.
Warning: this ship's position is 47 days out of date.

Length 130 m; draft 8.6 m.

Type: Cargo ship. MMSI: 273386650.

Date/timePositionNaut miles runAvg speedWind from/ knotsBaromVisibWave heightAir tempDewpointWater temp
2017-Oct-27 02:33N 37°49' E 122°31'012.1
2017-Oct-27 02:30N 37°49' E 122°31'612.0
2017-Oct-27 02:00N 37°47' E 122°23'612.2
2017-Oct-27 01:30N 37°46' E 122°16'612.5
2017-Oct-27 01:00N 37°46' E 122°08'611.8
2017-Oct-27 00:28N 37°47' E 122°00'612.3
2017-Oct-27 00:00N 37°49' E 121°53'612.3
2017-Oct-26 23:30N 37°51' E 121°46'612.4
2017-Oct-26 23:00N 37°52' E 121°38'612.2
2017-Oct-26 22:30N 37°53' E 121°30'611.8
2017-Oct-26 22:00N 37°54' E 121°23'611.9
2017-Oct-26 21:30N 37°56' E 121°16'611.8
2017-Oct-26 21:00N 37°56' E 121°09'611.7
2017-Oct-26 20:30N 37°57' E 121°01'711.1
2017-Oct-26 19:53N 37°59' E 120°53'  
2017-Oct-21 22:49N 37°58' E 121°15'411.9
2017-Oct-21 22:30N 37°59' E 121°20'611.8
2017-Oct-21 22:00N 38°01' E 121°27'611.4
2017-Oct-21 21:31N 37°60' E 121°34'611.5
2017-Oct-21 20:58N 37°59' E 121°42'911.8
2017-Oct-21 20:11N 37°58' E 121°54'  
Track history (hours):
 
Tides and Currents Weather Stations Pressure Air Temp Water Temp Dewpoint Dewpoint Depression Visibility Wind Speed Wind Dir Waves Ship Positions

Oceanographic research ship Akademik Korolev (Russia)

Detailed information on ship capabilities available from University of Delaware's Ocean Information Center.

Last reported at 2017-Oct-27 02:33 UTC. Time now 2017-Dec-13 13:14 UTC.
Position N 37°49' E 122°31'.
Warning: this ship's position is 47 days out of date.

Length 130 m; draft 8.6 m.

Type: Cargo ship. MMSI: 273386650.

Date/timePositionNaut miles runAvg speedWind from/ knotsBaromVisibWave heightAir tempDewpointWater temp
2017-Oct-27 02:33N 37°49' E 122°31'012.1
2017-Oct-27 02:30N 37°49' E 122°31'612.0
2017-Oct-27 02:00N 37°47' E 122°23'612.2
2017-Oct-27 01:30N 37°46' E 122°16'612.5
2017-Oct-27 01:00N 37°46' E 122°08'611.8
2017-Oct-27 00:28N 37°47' E 122°00'612.3
2017-Oct-27 00:00N 37°49' E 121°53'612.3
2017-Oct-26 23:30N 37°51' E 121°46'612.4
2017-Oct-26 23:00N 37°52' E 121°38'612.2
2017-Oct-26 22:30N 37°53' E 121°30'611.8
2017-Oct-26 22:00N 37°54' E 121°23'611.9
2017-Oct-26 21:30N 37°56' E 121°16'611.8
2017-Oct-26 21:00N 37°56' E 121°09'611.7
2017-Oct-26 20:30N 37°57' E 121°01'711.1
2017-Oct-26 19:53N 37°59' E 120°53'  
2017-Oct-21 22:49N 37°58' E 121°15'411.9
2017-Oct-21 22:30N 37°59' E 121°20'611.8
2017-Oct-21 22:00N 38°01' E 121°27'611.4
2017-Oct-21 21:31N 37°60' E 121°34'611.5
2017-Oct-21 20:58N 37°59' E 121°42'911.8
2017-Oct-21 20:11N 37°58' E 121°54'  

Dump ship's entire track history